Time;durP1;ratioP1;P1;durP2;ratioP2;P2;SDS_P1;SDS_P2;PMS_P1;PMS_P2;Temp;Humidity;BMP_temperature;BMP_pressure;BME280_temperature;BME280_humidity;BME280_pressure;Samples;Min_cycle;Max_cycle;Signal;HPM_P1;HPM_P2
2021/07/20 00:02:47;;;;;;;28.35;15.50;;;;;;;13.98;91.94;101647.41;4941729;28;20106;-88
2021/07/20 00:05:16;;;;;;;28.10;15.57;;;;;;;13.93;92.04;101648.91;4944038;28;20458;-88
2021/07/20 00:07:43;;;;;;;31.85;16.92;;;;;;;13.93;92.04;101651.63;4943788;28;20118;-86
2021/07/20 00:10:15;;;;;;;30.20;16.63;;;;;;;13.94;91.98;101637.94;4943794;28;20074;-87
2021/07/20 00:12:44;;;;;;;25.67;15.57;;;;;;;13.91;91.82;101640.13;4945805;28;20051;-85
2021/07/20 00:15:13;;;;;;;28.00;16.50;;;;;;;13.91;91.90;101642.84;4942840;28;20474;-86
2021/07/20 00:17:42;;;;;;;29.58;15.85;;;;;;;13.83;92.26;101643.66;4945803;28;20051;-89
2021/07/20 00:20:10;;;;;;;34.22;17.42;;;;;;;13.87;92.28;101652.28;4945839;28;20047;-86
2021/07/20 00:22:35;;;;;;;32.08;16.70;;;;;;;13.83;92.64;101640.13;4946839;28;20051;-87
2021/07/20 00:25:00;;;;;;;28.50;15.20;;;;;;;13.72;92.60;101644.81;4944757;28;20050;-87
2021/07/20 00:27:26;;;;;;;28.88;15.70;;;;;;;13.66;92.70;101645.44;4943748;28;20059;-86
2021/07/20 00:29:51;;;;;;;32.10;17.17;;;;;;;13.64;93.08;101652.06;4941331;28;20406;-87
2021/07/20 00:32:16;;;;;;;30.05;16.67;;;;;;;13.60;93.01;101648.81;4936759;28;20053;-84
2021/07/20 00:34:42;;;;;;;30.40;15.63;;;;;;;13.53;93.06;101650.47;4940433;28;20039;-85
2021/07/20 00:37:07;;;;;;;27.42;15.35;;;;;;;13.49;93.37;101643.72;4942424;28;20071;-85
2021/07/20 00:39:33;;;;;;;32.08;16.88;;;;;;;13.48;93.39;101642.03;4942918;28;20082;-84
2021/07/20 00:41:59;;;;;;;31.65;16.65;;;;;;;13.45;93.63;101643.19;4942104;28;20050;-86
2021/07/20 00:44:24;;;;;;;31.92;17.25;;;;;;;13.39;93.89;101649.25;4944423;28;20098;-88
2021/07/20 00:46:50;;;;;;;29.92;16.38;;;;;;;13.35;93.76;101642.50;4949565;28;20791;-86
2021/07/20 00:49:16;;;;;;;32.17;16.88;;;;;;;13.29;94.00;101640.41;4942273;28;20485;-86
2021/07/20 00:51:42;;;;;;;29.48;15.63;;;;;;;13.23;94.73;101639.19;4943248;28;20047;-86
2021/07/20 00:54:09;;;;;;;29.02;16.27;;;;;;;13.22;94.48;101637.50;4941946;28;20047;-87
2021/07/20 00:56:34;;;;;;;30.63;15.95;;;;;;;13.16;94.58;101635.47;4941611;28;20487;-87
2021/07/20 00:59:01;;;;;;;30.67;15.85;;;;;;;13.12;94.61;101631.41;4940634;28;20053;-87
2021/07/20 01:01:27;;;;;;;30.80;16.48;;;;;;;13.10;94.91;101628.03;4942798;28;20043;-85
2021/07/20 01:03:53;;;;;;;30.23;16.70;;;;;;;13.06;94.68;101632.03;4945669;28;20078;-85
2021/07/20 01:06:20;;;;;;;28.83;16.27;;;;;;;13.04;95.22;101628.66;4944188;28;20055;-84
2021/07/20 01:08:47;;;;;;;27.77;15.93;;;;;;;13.00;95.32;101627.28;4945718;28;20047;-88
2021/07/20 01:11:13;;;;;;;27.50;15.13;;;;;;;12.93;95.00;101621.69;4945652;28;20051;-82
2021/07/20 01:13:39;;;;;;;30.75;16.15;;;;;;;12.87;95.14;101623.16;4944805;28;20050;-86
2021/07/20 01:16:06;;;;;;;34.53;16.88;;;;;;;12.76;95.39;101618.03;4946372;28;20040;-86
2021/07/20 01:18:33;;;;;;;31.73;16.38;;;;;;;12.72;95.85;101624.75;4945151;28;20047;-86
2021/07/20 01:20:59;;;;;;;29.92;16.42;;;;;;;12.69;96.35;101625.09;4943738;28;20040;-87
2021/07/20 01:23:33;;;;;;;26.50;15.60;;;;;;;12.70;96.33;101625.91;4945225;28;20053;-86
2021/07/20 01:25:58;;;;;;;30.42;15.60;;;;;;;12.64;96.02;101627.41;4944834;29;20679;-86
2021/07/20 01:28:25;;;;;;;32.20;16.70;;;;;;;12.63;96.41;101626.56;4944514;28;20133;-86
2021/07/20 01:30:56;;;;;;;31.40;17.42;;;;;;;12.63;96.26;101631.09;4946406;28;20082;-87
2021/07/20 01:33:23;;;;;;;32.72;17.33;;;;;;;12.59;96.18;101640.47;4944195;28;20052;-85
2021/07/20 01:35:52;;;;;;;31.80;16.63;;;;;;;12.53;96.71;101630.34;4945226;28;20123;-87
2021/07/20 01:38:20;;;;;;;36.05;17.13;;;;;;;12.52;96.93;101637.56;4945057;28;20047;-85
2021/07/20 01:40:49;;;;;;;33.38;17.58;;;;;;;12.54;97.44;101637.41;4944123;28;20055;-85
2021/07/20 01:43:15;;;;;;;36.92;17.90;;;;;;;12.50;97.01;101636.88;4943046;28;20059;-87
2021/07/20 01:45:41;;;;;;;29.65;15.98;;;;;;;12.47;97.39;101639.88;4945812;28;20126;-85
2021/07/20 01:48:07;;;;;;;30.35;16.55;;;;;;;12.46;97.42;101638.22;4944841;28;20410;-85
2021/07/20 01:50:35;;;;;;;32.65;16.88;;;;;;;12.50;97.60;101631.50;4945651;28;23389;-87
2021/07/20 01:53:03;;;;;;;34.22;18.70;;;;;;;12.48;97.75;101638.03;4944251;28;20165;-86
2021/07/20 01:55:28;;;;;;;33.03;17.65;;;;;;;12.49;97.81;101634.34;4943187;28;20043;-86
2021/07/20 01:57:54;;;;;;;36.97;19.13;;;;;;;12.49;97.58;101634.34;4944739;28;20759;-86
2021/07/20 02:00:21;;;;;;;37.90;17.50;;;;;;;12.44;97.76;101632.13;4944246;28;20043;-86
2021/07/20 02:08:41;;;;;;;30.27;16.15;;;;;;;12.29;97.61;101634.53;4941099;28;20066;-88
2021/07/20 02:11:11;;;;;;;33.28;17.52;;;;;;;12.25;98.11;101635.81;4944191;28;20486;-87
2021/07/20 02:13:43;;;;;;;33.45;16.65;;;;;;;12.23;97.75;101637.84;4941333;28;20395;-86
2021/07/20 02:16:14;;;;;;;31.92;17.30;;;;;;;12.23;97.54;101642.34;4938725;28;20135;-86
2021/07/20 02:18:51;;;;;;;35.00;17.80;;;;;;;12.22;97.46;101640.66;4940461;28;20494;-87
2021/07/20 02:21:18;;;;;;;30.10;16.55;;;;;;;12.19;97.97;101644.50;4944796;28;20039;-87
2021/07/20 02:23:44;;;;;;;37.75;19.05;;;;;;;12.25;98.22;101641.19;4942949;28;20051;-86
2021/07/20 02:26:10;;;;;;;38.65;19.30;;;;;;;12.26;98.16;101642.91;4944136;28;20413;-88
2021/07/20 02:28:37;;;;;;;33.10;16.23;;;;;;;12.23;98.00;101645.91;4942821;28;20070;-86
2021/07/20 02:31:05;;;;;;;35.75;19.00;;;;;;;12.23;98.10;101640.53;4943188;28;20106;-87
2021/07/20 02:33:31;;;;;;;40.17;19.67;;;;;;;12.20;98.18;101638.16;4944109;28;20138;-86
2021/07/20 02:35:58;;;;;;;36.42;19.00;;;;;;;12.14;97.87;101641.44;4944778;28;20146;-86
2021/07/20 02:38:24;;;;;;;38.70;19.95;;;;;;;12.14;98.52;101642.31;4943098;28;20110;-85
2021/07/20 02:40:50;;;;;;;37.72;18.95;;;;;;;12.10;98.30;101640.91;4942755;28;20071;-87
2021/07/20 02:43:18;;;;;;;41.55;20.45;;;;;;;12.11;98.48;101641.75;4944110;28;20067;-86
2021/07/20 02:45:45;;;;;;;39.78;19.45;;;;;;;12.12;98.82;101646.16;4942970;28;20051;-85
2021/07/20 02:48:11;;;;;;;47.72;20.70;;;;;;;12.14;98.94;101641.44;4943232;28;20047;-87
2021/07/20 02:50:36;;;;;;;46.10;20.35;;;;;;;12.11;99.21;101641.75;4944325;28;20494;-86
2021/07/20 02:53:03;;;;;;;43.38;20.20;;;;;;;12.19;98.85;101644.50;4942351;28;20476;-86
2021/07/20 02:55:30;;;;;;;41.67;19.13;;;;;;;12.21;99.44;101653.28;4943814;28;20090;-87
2021/07/20 02:57:59;;;;;;;40.63;20.20;;;;;;;12.22;99.99;101646.91;4943301;28;20051;-86
2021/07/20 03:00:26;;;;;;;;;;;;;;;12.29;99.87;101647.16;4943325;28;20413;-87
2021/07/20 03:02:53;;;;;;;43.95;20.48;;;;;;;12.25;100.00;101646.59;4940095;28;19990;-87
2021/07/20 03:05:19;;;;;;;43.65;20.52;;;;;;;12.22;100.00;101648.75;4920257;29;20510;-86
2021/07/20 03:07:54;;;;;;;45.42;20.90;;;;;;;12.32;100.00;101652.22;4936368;28;20052;-86
2021/07/20 03:10:21;;;;;;;40.83;20.90;;;;;;;12.31;99.44;101651.34;4943291;28;20039;-87
2021/07/20 03:12:48;;;;;;;44.15;20.98;;;;;;;12.38;100.00;101649.75;4943589;28;20055;-87
2021/07/20 03:15:14;;;;;;;43.67;19.38;;;;;;;12.40;100.00;101650.44;4943248;28;20053;-87
2021/07/20 03:17:41;;;;;;;40.55;20.63;;;;;;;12.48;99.71;101643.41;4941696;28;20167;-87
2021/07/20 03:20:08;;;;;;;40.80;20.77;;;;;;;12.52;99.04;101644.81;4943014;28;20051;-88
2021/07/20 03:22:34;;;;;;;39.30;20.02;;;;;;;12.56;98.91;101647.03;4942569;28;20131;-87
2021/07/20 03:25:03;;;;;;;42.08;21.02;;;;;;;12.60;99.34;101652.94;4936729;29;20135;-86
2021/07/20 03:27:33;;;;;;;41.47;20.83;;;;;;;12.60;98.63;101653.81;4940967;28;20055;-88
2021/07/20 03:30:00;;;;;;;42.00;21.15;;;;;;;12.63;98.53;101652.66;4937668;28;20043;-87
2021/07/20 03:32:26;;;;;;;41.67;21.02;;;;;;;12.68;98.74;101650.31;4941757;28;20066;-87
2021/07/20 03:34:53;;;;;;;39.85;19.67;;;;;;;12.70;99.55;101659.06;4944034;28;20047;-87
2021/07/20 03:37:21;;;;;;;45.38;20.50;;;;;;;12.74;99.13;101657.75;4940874;28;20406;-87
2021/07/20 03:39:47;;;;;;;40.05;20.20;;;;;;;12.74;98.19;101659.59;4942088;28;20054;-87
2021/07/20 03:42:13;;;;;;;41.78;20.50;;;;;;;12.76;98.95;101658.44;4943615;28;20118;-86
2021/07/20 03:44:39;;;;;;;42.63;18.85;;;;;;;12.74;99.76;101651.53;4941513;28;20524;-87
2021/07/20 03:47:06;;;;;;;42.83;21.00;;;;;;;12.77;99.60;101649.34;4943717;28;20058;-87
2021/07/20 03:49:33;;;;;;;40.88;20.42;;;;;;;12.81;99.49;101645.34;4953615;28;21038;-89
2021/07/20 03:51:59;;;;;;;41.25;20.17;;;;;;;12.78;99.24;101645.69;4941540;28;20055;-86
2021/07/20 03:54:31;;;;;;;41.17;19.52;;;;;;;12.77;99.50;101646.66;4942759;28;20059;-87
2021/07/20 03:56:59;;;;;;;40.08;20.63;;;;;;;12.83;99.00;101642.50;4942118;28;20062;-87
2021/07/20 03:59:27;;;;;;;40.20;19.92;;;;;;;12.85;98.28;101644.03;4942785;28;20051;-86
2021/07/20 04:01:55;;;;;;;38.22;20.38;;;;;;;12.88;98.08;101646.41;4941452;28;20051;-87
2021/07/20 04:04:22;;;;;;;40.10;19.85;;;;;;;12.85;98.25;101652.09;4942015;28;20130;-86
2021/07/20 04:06:50;;;;;;;41.13;20.52;;;;;;;12.86;98.62;101648.44;4943349;28;20051;-87
2021/07/20 04:09:16;;;;;;;49.67;22.23;;;;;;;12.87;98.39;101651.97;4935718;29;20133;-87
2021/07/20 04:11:43;;;;;;;42.78;19.98;;;;;;;12.88;98.58;101646.41;4940254;28;20066;-88
2021/07/20 04:14:11;;;;;;;38.70;20.73;;;;;;;12.87;99.50;101650.09;4941596;28;20255;-88
2021/07/20 04:16:38;;;;;;;40.20;19.92;;;;;;;12.86;99.91;101648.44;4942976;28;20047;-86
2021/07/20 04:19:03;;;;;;;41.40;21.05;;;;;;;12.89;99.05;101644.56;4941894;28;20047;-86
2021/07/20 04:21:29;;;;;;;41.53;20.42;;;;;;;12.92;99.45;101644.25;4942299;28;20050;-87
2021/07/20 04:23:55;;;;;;;42.35;20.77;;;;;;;12.97;100.00;101638.38;4940646;28;20055;-87
2021/07/20 04:26:22;;;;;;;40.70;19.95;;;;;;;13.00;98.99;101638.06;4942191;28;20124;-87
2021/07/20 04:28:48;;;;;;;42.47;21.00;;;;;;;13.00;98.54;101638.88;4942119;28;20194;-86
2021/07/20 04:31:19;;;;;;;42.85;20.35;;;;;;;12.99;98.33;101641.75;4940970;28;20151;-87
2021/07/20 04:33:46;;;;;;;39.75;19.48;;;;;;;13.04;98.67;101640.28;4942317;28;20054;-87
2021/07/20 04:36:13;;;;;;;41.63;21.35;;;;;;;13.05;98.26;101641.13;4944396;28;20058;-88
2021/07/20 04:38:40;;;;;;;40.30;19.60;;;;;;;13.06;99.25;101643.66;4945099;28;20039;-86
2021/07/20 04:41:06;;;;;;;38.15;19.85;;;;;;;13.09;98.59;101647.91;4946853;28;20383;-86
2021/07/20 04:43:32;;;;;;;40.75;19.83;;;;;;;13.10;98.26;101649.56;4944766;28;20051;-87
2021/07/20 04:46:00;;;;;;;43.45;21.73;;;;;;;13.13;98.53;101651.09;4946297;28;20107;-86
2021/07/20 04:48:26;;;;;;;38.40;20.42;;;;;;;13.15;98.29;101655.34;4943072;28;20993;-87
2021/07/20 04:50:53;;;;;;;41.72;21.05;;;;;;;13.16;98.18;101651.63;4945966;28;20439;-87
2021/07/20 04:53:19;;;;;;;40.88;20.60;;;;;;;13.18;98.81;101655.00;4945669;28;20122;-87
2021/07/20 04:55:48;;;;;;;38.78;20.13;;;;;;;13.23;99.17;101651.81;4946375;28;20047;-87
2021/07/20 04:58:14;;;;;;;42.85;20.48;;;;;;;13.26;98.51;101654.22;4944612;28;20613;-87
2021/07/20 05:00:42;;;;;;;43.05;20.60;;;;;;;13.30;98.36;101653.75;4943059;28;20047;-87
2021/07/20 05:03:09;;;;;;;38.97;19.25;;;;;;;13.36;98.42;101651.44;4944934;28;20074;-88
2021/07/20 05:05:38;;;;;;;38.30;19.50;;;;;;;13.36;97.89;101659.50;4946061;28;20051;-87
2021/07/20 05:08:06;;;;;;;40.42;20.85;;;;;;;13.41;99.27;101659.88;4945192;28;20054;-88
2021/07/20 05:10:32;;;;;;;38.25;20.55;;;;;;;13.44;97.76;101657.69;4941614;28;20047;-87
2021/07/20 05:12:58;;;;;;;41.05;21.00;;;;;;;13.48;98.31;101652.81;4944001;28;20533;-87
2021/07/20 05:15:24;;;;;;;39.95;20.77;;;;;;;13.46;97.98;101654.81;4942454;28;20521;-87
2021/07/20 05:17:49;;;;;;;38.95;20.42;;;;;;;13.52;98.08;101659.56;4944751;28;20047;-87
2021/07/20 05:20:19;;;;;;;41.13;21.00;;;;;;;13.60;98.33;101666.84;4944680;28;20043;-87
2021/07/20 05:22:45;;;;;;;41.33;20.23;;;;;;;13.60;97.78;101656.91;4944194;28;20093;-87
2021/07/20 05:25:13;;;;;;;38.05;20.20;;;;;;;13.61;97.78;101658.59;4944460;28;20054;-86
2021/07/20 05:27:49;;;;;;;39.42;21.40;;;;;;;13.72;98.76;101666.41;4945360;28;20093;-88
2021/07/20 05:30:16;;;;;;;40.53;20.33;;;;;;;13.76;97.40;101667.75;4946072;28;20392;-86
2021/07/20 05:32:45;;;;;;;38.63;20.48;;;;;;;13.85;97.85;101665.91;4941262;28;20406;-86
2021/07/20 05:35:13;;;;;;;38.63;20.35;;;;;;;13.89;97.31;101664.56;4945244;28;20082;-86
2021/07/20 05:37:40;;;;;;;38.88;20.33;;;;;;;13.99;98.26;101667.97;4945294;28;20081;-87
2021/07/20 05:40:17;;;;;;;41.05;19.58;;;;;;;14.06;96.79;101661.91;4944910;28;20682;-86
2021/07/20 05:42:46;;;;;;;36.53;19.48;;;;;;;14.11;96.66;101663.13;4943243;28;20054;-86
2021/07/20 05:45:12;;;;;;;40.10;19.88;;;;;;;14.18;96.50;101668.69;4944431;28;20241;-86
2021/07/20 05:47:40;;;;;;;37.70;18.83;;;;;;;14.25;97.57;101674.28;4943045;28;20059;-87
2021/07/20 05:50:07;;;;;;;38.72;19.58;;;;;;;14.30;97.67;101670.06;4944829;28;20061;-89
2021/07/20 05:52:37;;;;;;;38.60;20.02;;;;;;;14.39;96.82;101666.34;4943960;28;20054;-88
2021/07/20 05:55:06;;;;;;;37.75;19.55;;;;;;;14.43;95.69;101670.41;4944183;28;20038;-87
2021/07/20 05:57:31;;;;;;;36.47;18.80;;;;;;;14.47;96.45;101670.88;4945154;28;20417;-89
2021/07/20 05:59:58;;;;;;;35.30;19.20;;;;;;;14.56;96.06;101661.84;4944988;28;20082;-88
2021/07/20 06:02:24;;;;;;;35.63;19.02;;;;;;;14.60;95.65;101670.44;4944493;28;20954;-88
2021/07/20 06:04:51;;;;;;;36.15;18.88;;;;;;;14.72;96.12;101679.03;4943280;28;20685;-87
2021/07/20 06:07:17;;;;;;;34.65;19.10;;;;;;;14.75;94.99;101667.88;4943007;28;20075;-87
2021/07/20 06:09:45;;;;;;;37.15;18.65;;;;;;;14.81;95.06;101676.16;4944347;28;20046;-90
2021/07/20 06:12:13;;;;;;;35.88;19.55;;;;;;;14.88;95.11;101682.56;4944770;28;20043;-87
2021/07/20 06:14:39;;;;;;;32.57;17.63;;;;;;;14.90;94.90;101687.78;4943556;28;20494;-87
2021/07/20 06:17:06;;;;;;;36.78;18.75;;;;;;;14.97;95.08;101690.66;4944004;28;20126;-86
2021/07/20 06:19:37;;;;;;;35.58;17.92;;;;;;;15.06;93.99;101682.38;4942257;28;20138;-86
2021/07/20 06:22:07;;;;;;;35.78;18.23;;;;;;;15.15;93.80;101685.06;4945380;28;20380;-87
2021/07/20 06:24:34;;;;;;;33.03;17.30;;;;;;;15.21;94.17;101682.50;4944699;28;20054;-87
2021/07/20 06:27:00;;;;;;;32.67;17.95;;;;;;;15.29;92.88;101689.75;4942506;28;20054;-87
2021/07/20 06:29:26;;;;;;;35.55;17.55;;;;;;;15.35;93.34;101691.75;4943746;28;20242;-87
2021/07/20 06:31:53;;;;;;;33.20;18.25;;;;;;;15.49;93.63;101687.50;4944808;28;20043;-87
2021/07/20 06:34:19;;;;;;;30.88;16.80;;;;;;;15.56;92.08;101692.03;4943798;28;20704;-87
2021/07/20 06:36:45;;;;;;;30.42;14.95;;;;;;;15.62;91.33;101695.88;4943977;28;20086;-90
2021/07/20 06:39:13;;;;;;;30.23;15.68;;;;;;;15.71;90.17;101696.75;4943256;28;20086;-91
2021/07/20 06:41:39;;;;;;;29.52;15.80;;;;;;;15.78;90.02;101697.72;4942892;28;20130;-88
2021/07/20 06:44:06;;;;;;;28.05;16.13;;;;;;;15.86;89.98;101697.69;4943507;28;20053;-87
2021/07/20 06:46:32;;;;;;;28.05;15.52;;;;;;;15.88;89.33;101692.94;4944711;28;20208;-88
2021/07/20 06:49:01;;;;;;;28.42;15.38;;;;;;;15.93;88.70;101701.34;4944393;28;20048;-87
2021/07/20 06:51:29;;;;;;;32.28;15.93;;;;;;;15.92;88.66;101699.66;4941422;28;20070;-88
2021/07/20 06:53:55;;;;;;;26.73;15.63;;;;;;;15.96;88.98;101703.69;4944489;28;20384;-86
2021/07/20 06:56:25;;;;;;;30.52;16.17;;;;;;;15.98;88.91;101701.66;4943358;28;20069;-87
2021/07/20 06:58:52;;;;;;;26.33;15.25;;;;;;;16.04;88.84;101702.81;4941921;28;20058;-89
2021/07/20 07:01:20;;;;;;;29.95;15.40;;;;;;;15.98;89.63;101703.53;4944280;28;20190;-85
2021/07/20 07:04:07;;;;;;;31.10;15.55;;;;;;;16.11;91.18;101711.94;4941185;28;20830;-87
2021/07/20 07:06:36;;;;;;;29.13;15.82;;;;;;;16.13;88.67;101711.72;4943507;28;20051;-87
2021/07/20 07:09:02;;;;;;;26.27;14.43;;;;;;;16.22;87.67;101714.19;4943483;28;20051;-87
2021/07/20 07:11:29;;;;;;;23.90;13.95;;;;;;;16.30;86.87;101718.72;4942672;28;20505;-92
2021/07/20 07:13:55;;;;;;;23.08;13.15;;;;;;;16.28;85.34;101715.34;4941974;28;20130;-88
2021/07/20 07:16:22;;;;;;;22.40;13.10;;;;;;;16.25;84.89;101710.28;4945064;28;20466;-86
2021/07/20 07:18:48;;;;;;;25.25;12.80;;;;;;;16.29;86.10;101718.94;4942052;28;20062;-86
2021/07/20 07:21:15;;;;;;;24.60;13.93;;;;;;;16.38;86.01;101721.38;4943283;28;20045;-88
2021/07/20 07:23:43;;;;;;;27.20;14.13;;;;;;;16.53;86.46;101713.31;4942205;28;20061;-90
2021/07/20 07:26:14;;;;;;;22.70;12.65;;;;;;;16.46;84.97;101709.66;4932032;29;20062;-86
2021/07/20 07:28:41;;;;;;;24.25;13.90;;;;;;;16.65;85.17;101711.03;4940281;28;20039;-88
2021/07/20 07:31:11;;;;;;;25.65;15.20;;;;;;;16.67;84.89;101709.81;4943684;28;20656;-86
2021/07/20 07:33:37;;;;;;;24.17;13.30;;;;;;;16.73;83.89;101718.25;4942443;28;20062;-88
2021/07/20 07:36:03;;;;;;;22.73;12.10;;;;;;;16.83;83.20;101718.84;4941660;28;20070;-86
2021/07/20 07:38:29;;;;;;;21.05;11.95;;;;;;;16.88;79.99;101717.28;4943361;28;20670;-87
2021/07/20 07:40:56;;;;;;;27.48;12.98;;;;;;;16.94;82.05;101714.88;4943033;28;20075;-87
2021/07/20 07:43:25;;;;;;;21.70;12.10;;;;;;;16.86;80.37;101718.47;4942195;28;20039;-87
2021/07/20 07:45:52;;;;;;;;;;;;;;;16.95;80.93;101713.88;4940456;28;20055;-86
2021/07/20 07:48:22;;;;;;;27.92;14.23;;;;;;;16.95;81.62;101713.88;4944509;28;19923;-86
2021/07/20 07:50:55;;;;;;;24.77;13.75;;;;;;;17.02;82.49;101717.50;4942006;28;20503;-87
2021/07/20 07:53:21;;;;;;;23.05;12.60;;;;;;;17.08;80.68;101714.88;4942345;28;21709;-90
2021/07/20 07:55:50;;;;;;;19.70;12.15;;;;;;;17.21;80.31;101719.69;4940861;28;20051;-87
2021/07/20 07:58:16;;;;;;;21.23;13.35;;;;;;;17.13;79.92;101722.47;4943241;28;20051;-87
2021/07/20 08:00:43;;;;;;;21.58;12.93;;;;;;;17.13;80.80;101719.78;4942037;28;20063;-88
2021/07/20 08:03:16;;;;;;;21.92;12.20;;;;;;;17.26;80.45;101722.69;4943118;28;20483;-88
2021/07/20 08:05:46;;;;;;;19.45;11.60;;;;;;;17.25;78.50;101723.69;4941276;28;20047;-86
2021/07/20 08:08:13;;;;;;;19.42;12.57;;;;;;;17.35;78.60;101718.03;4943383;28;20058;-86
2021/07/20 08:10:43;;;;;;;19.45;11.90;;;;;;;17.46;78.44;101717.53;4943479;28;20051;-88
2021/07/20 08:13:11;;;;;;;20.67;11.32;;;;;;;17.46;76.89;101724.84;4939694;28;20345;-91
2021/07/20 08:15:37;;;;;;;18.75;10.95;;;;;;;17.43;75.48;101725.22;4939256;28;20062;-87
2021/07/20 08:18:04;;;;;;;16.35;10.10;;;;;;;17.45;74.14;101729.41;4943527;28;20035;-87
2021/07/20 08:20:32;;;;;;;16.85;10.43;;;;;;;17.51;73.70;101728.66;4942332;28;20078;-86
2021/07/20 08:22:57;;;;;;;17.10;10.05;;;;;;;17.49;72.74;101722.63;4942911;28;20044;-87
2021/07/20 08:25:37;;;;;;;15.65;9.10;;;;;;;17.52;72.18;101724.94;4943756;28;20066;-88
2021/07/20 08:28:28;;;;;;;16.95;9.32;;;;;;;17.54;71.85;101732.88;4955277;28;20083;-87
2021/07/20 08:30:58;;;;;;;12.73;8.48;;;;;;;17.49;72.11;101729.88;4930959;29;20047;-87
2021/07/20 08:33:29;;;;;;;14.70;9.15;;;;;;;17.49;72.45;101738.91;4921442;29;20059;-87
2021/07/20 08:35:57;;;;;;;14.95;8.68;;;;;;;17.61;71.77;101733.84;4933721;28;20137;-86
2021/07/20 08:38:24;;;;;;;15.02;9.23;;;;;;;17.59;69.96;101730.47;4943796;28;20057;-89
2021/07/20 08:40:50;;;;;;;13.85;8.27;;;;;;;17.73;69.88;101728.78;4942221;28;20054;-86
2021/07/20 08:43:43;;;;;;;14.07;8.63;;;;;;;17.93;69.79;101731.78;4941141;28;20051;-88
2021/07/20 08:46:23;;;;;;;13.07;8.60;;;;;;;18.21;69.41;101735.44;4940525;28;20059;-86
2021/07/20 08:49:02;;;;;;;11.35;7.05;;;;;;;18.40;66.92;101739.41;4939720;28;20050;-90
2021/07/20 08:51:42;;;;;;;15.55;8.30;;;;;;;18.26;67.10;101732.97;4940275;28;20047;-88
2021/07/20 08:54:12;;;;;;;12.82;8.43;;;;;;;18.61;72.44;101740.44;4953477;28;20066;-88
2021/07/20 08:56:43;;;;;;;14.77;8.90;;;;;;;18.87;69.67;101732.59;4940403;28;20103;-88
2021/07/20 08:59:15;;;;;;;12.85;7.90;;;;;;;19.12;67.21;101738.41;4955454;28;20273;-86
2021/07/20 09:01:51;;;;;;;13.38;7.65;;;;;;;19.17;63.36;101737.81;4928365;28;20052;-86
2021/07/20 09:04:37;;;;;;;12.23;7.68;;;;;;;19.18;63.94;101736.78;4941314;28;20043;-88
2021/07/20 09:07:10;;;;;;;10.45;6.97;;;;;;;19.13;63.21;101739.25;4954783;28;20062;-88
2021/07/20 09:09:40;;;;;;;10.85;7.15;;;;;;;19.11;61.97;101753.06;4941760;28;20057;-89
2021/07/20 09:12:30;;;;;;;10.00;6.80;;;;;;;19.07;61.93;101732.72;4939120;28;20143;-88
2021/07/20 09:15:00;;;;;;;13.10;7.82;;;;;;;19.16;62.89;101745.16;4939755;28;20660;-88
2021/07/20 09:17:31;;;;;;;12.98;7.72;;;;;;;19.13;61.60;101753.72;4943185;28;20130;-87
2021/07/20 09:20:09;;;;;;;11.95;7.63;;;;;;;19.09;63.43;101744.25;4940519;28;20062;-87
2021/07/20 09:22:43;;;;;;;13.20;7.65;;;;;;;19.17;63.93;101749.53;4942630;28;20607;-87
2021/07/20 09:25:17;;;;;;;12.73;7.93;;;;;;;19.10;61.91;101745.09;4943884;28;20501;-89
2021/07/20 09:27:51;;;;;;;11.43;7.50;;;;;;;19.07;62.72;101746.31;4946015;28;20051;-87
2021/07/20 09:30:25;;;;;;;11.43;7.57;;;;;;;19.02;62.87;101748.81;4946728;28;20043;-88
2021/07/20 09:33:20;;;;;;;11.57;7.43;;;;;;;19.15;63.02;101746.16;4945208;28;20043;-87
2021/07/20 09:35:58;;;;;;;11.25;7.00;;;;;;;19.23;61.36;101749.78;4941732;28;20042;-87
2021/07/20 09:38:29;;;;;;;11.88;7.32;;;;;;;19.08;60.65;101748.00;4938833;29;20074;-90
2021/07/20 09:41:07;;;;;;;12.77;8.07;;;;;;;18.92;60.69;101740.13;4944358;28;20257;-90
2021/07/20 09:43:50;;;;;;;12.50;7.80;;;;;;;18.83;61.33;101744.88;4945553;28;20129;-86
2021/07/20 09:46:25;;;;;;;13.30;7.38;;;;;;;18.93;60.96;101752.69;4943754;28;20127;-87
2021/07/20 09:48:57;;;;;;;11.88;7.47;;;;;;;19.04;62.03;101746.72;4944781;28;20573;-87
2021/07/20 09:51:41;;;;;;;10.68;6.93;;;;;;;18.93;60.59;101745.38;4943640;28;22401;-87
2021/07/20 09:54:31;;;;;;;11.55;7.13;;;;;;;18.84;61.98;101745.72;4941216;28;20055;-87
2021/07/20 09:57:06;;;;;;;10.13;6.57;;;;;;;18.90;61.33;101761.22;4944099;28;20058;-87
2021/07/20 10:00:12;;;;;;;13.77;7.55;;;;;;;18.89;61.73;101748.69;4942959;28;20066;-86
2021/07/20 10:02:51;;;;;;;12.00;6.97;;;;;;;19.04;62.13;101759.47;4942379;28;20039;-87
2021/07/20 10:05:43;;;;;;;10.80;6.50;;;;;;;19.23;59.88;101757.97;4942575;28;20051;-86
2021/07/20 10:08:24;;;;;;;10.20;6.90;;;;;;;19.35;61.56;101759.91;4940911;28;20402;-88
2021/07/20 10:11:12;;;;;;;10.55;6.47;;;;;;;19.46;59.32;101755.81;4944205;28;20035;-88
2021/07/20 10:13:45;;;;;;;10.50;6.22;;;;;;;19.34;58.85;101744.66;4943896;28;20114;-87
2021/07/20 10:17:06;;;;;;;11.90;6.65;;;;;;;19.24;61.11;101751.47;4943168;28;20168;-86
2021/07/20 10:19:40;;;;;;;10.35;6.45;;;;;;;19.49;59.04;101749.97;4875478;28;20403;-88
2021/07/20 10:22:09;;;;;;;11.07;6.45;;;;;;;19.39;58.95;101742.19;4945407;28;20395;-89
2021/07/20 10:24:38;;;;;;;11.30;6.38;;;;;;;19.46;60.81;101744.09;4942760;28;20051;-86
2021/07/20 10:27:06;;;;;;;;;;;;;;;19.68;60.22;101751.16;4944729;28;20206;-87
2021/07/20 10:29:45;;;;;;;10.13;5.90;;;;;;;19.80;59.97;101741.38;4943112;28;19922;-88
2021/07/20 10:32:32;;;;;;;9.38;5.25;;;;;;;20.04;59.37;101745.44;4944430;28;20118;-87
2021/07/20 10:35:07;;;;;;;9.55;5.30;;;;;;;20.28;58.18;101732.31;4940858;28;20051;-90
2021/07/20 10:37:37;;;;;;;9.23;5.55;;;;;;;20.44;58.84;101737.38;4942274;28;20036;-86
2021/07/20 10:40:06;;;;;;;9.85;5.43;;;;;;;20.55;58.47;101743.31;4959432;28;20047;-87
2021/07/20 10:42:50;;;;;;;9.88;6.43;;;;;;;20.47;58.05;101745.16;4943541;28;20440;-87
2021/07/20 10:45:18;;;;;;;10.75;6.70;;;;;;;20.63;57.84;101743.97;4942998;28;20039;-88
2021/07/20 10:48:08;;;;;;;10.13;5.70;;;;;;;20.81;58.11;101748.81;4941337;28;20426;-90
2021/07/20 10:50:52;;;;;;;10.27;5.85;;;;;;;20.71;56.59;101742.91;4938562;28;20047;-88
2021/07/20 10:53:54;;;;;;;8.85;5.57;;;;;;;20.88;59.05;101744.19;4941542;28;20138;-87
2021/07/20 10:56:29;;;;;;;9.60;5.47;;;;;;;21.14;58.09;101737.03;4942357;28;21364;-87
2021/07/20 10:58:54;;;;;;;8.85;5.78;;;;;;;21.19;56.63;101749.00;4943254;28;20142;-89
2021/07/20 11:01:48;;;;;;;8.88;5.10;;;;;;;21.21;55.97;101743.34;4943381;28;20047;-89
2021/07/20 11:04:43;;;;;;;7.65;5.38;;;;;;;20.77;56.13;101744.78;4953893;28;20110;-87
2021/07/20 11:07:10;;;;;;;7.90;5.38;;;;;;;20.90;57.47;101742.09;4930538;29;20495;-89
2021/07/20 11:09:39;;;;;;;9.30;5.70;;;;;;;20.90;57.05;101747.53;4941655;28;20043;-87
2021/07/20 11:12:06;;;;;;;9.48;5.82;;;;;;;20.89;57.38;101734.97;4943643;28;20186;-87
2021/07/20 11:14:43;;;;;;;9.90;6.47;;;;;;;20.85;54.93;101733.69;4944303;28;20067;-87
2021/07/20 11:17:10;;;;;;;7.80;5.63;;;;;;;20.86;56.58;101738.09;4942824;28;20621;-87
2021/07/20 11:19:37;;;;;;;8.77;5.22;;;;;;;20.87;56.87;101737.06;4945275;28;20135;-89
2021/07/20 11:22:03;;;;;;;8.65;5.30;;;;;;;20.89;58.14;101736.84;4943773;28;20070;-88
2021/07/20 11:24:30;;;;;;;9.38;6.20;;;;;;;21.11;57.01;101737.47;4943127;28;20054;-87
2021/07/20 11:27:00;;;;;;;8.68;5.40;;;;;;;20.86;55.02;101737.25;4943193;28;20047;-90
2021/07/20 11:29:27;;;;;;;8.23;5.35;;;;;;;20.94;56.78;101731.59;4944004;28;20051;-88
2021/07/20 11:31:55;;;;;;;8.52;5.63;;;;;;;21.17;57.66;101728.41;4943899;28;20051;-88